Wanatah, Indiana
Current Conditions -  °F | °C
As of 8:12 AM on Monday 24 Nov 2014 (Local Time) from KVPZ Reporting Station
Light Rain Light Rain  
Wind Chill: 42°   Ceiling: 500
Heat Index: 49°   Visibility: 10mi
Dew Point: 48°   Wind: 18mph
Humidity: 97%   Direction: 240°WSW
Pressure: 29.11"   Gusts: 24mph
Location:  41.43°N, 86.9°W
Report Text: KVPZ 241412Z AUTO 24016G21KT 10SM -RA OVC005 09/09 A2911 RMK AO2 P0000 T00940089 TSNO
Loading
Personal Weather Stations






























Interactive Weather Map New forecast layout! Learn more

10-Day Weather Forecast

Advertisements
Track Severe Weather on mobile